sensor_id;sensor_type;location;lat;lon;timestamp;temperature;humidity
17565;DHT22;62994;52.126;5.596;2022-12-15T00:00:51;-2.70;99.90
17565;DHT22;62994;52.126;5.596;2022-12-15T00:03:35;-2.70;99.90
17565;DHT22;62994;52.126;5.596;2022-12-15T00:06:21;-2.80;99.90
17565;DHT22;62994;52.126;5.596;2022-12-15T00:09:13;-2.80;99.90
17565;DHT22;62994;52.126;5.596;2022-12-15T00:12:00;-2.80;99.90
17565;DHT22;62994;52.126;5.596;2022-12-15T00:14:44;-2.80;99.90
17565;DHT22;62994;52.126;5.596;2022-12-15T00:17:29;-2.80;99.90
17565;DHT22;62994;52.126;5.596;2022-12-15T00:20:18;-2.80;99.90
17565;DHT22;62994;52.126;5.596;2022-12-15T00:23:19;-2.80;99.90
17565;DHT22;62994;52.126;5.596;2022-12-15T00:26:11;-2.80;99.90
17565;DHT22;62994;52.126;5.596;2022-12-15T00:28:58;-2.90;99.90
17565;DHT22;62994;52.126;5.596;2022-12-15T00:31:47;-2.90;99.90
17565;DHT22;62994;52.126;5.596;2022-12-15T00:34:37;-2.90;99.90
17565;DHT22;62994;52.126;5.596;2022-12-15T00:37:25;-2.90;99.90
17565;DHT22;62994;52.126;5.596;2022-12-15T00:40:24;-2.90;99.90
17565;DHT22;62994;52.126;5.596;2022-12-15T00:42:58;-2.90;99.90
17565;DHT22;62994;52.126;5.596;2022-12-15T00:45:29;-2.90;99.90
17565;DHT22;62994;52.126;5.596;2022-12-15T00:48:15;-2.90;99.90
17565;DHT22;62994;52.126;5.596;2022-12-15T00:50:44;-2.90;99.90
17565;DHT22;62994;52.126;5.596;2022-12-15T00:53:22;-2.90;99.90
17565;DHT22;62994;52.126;5.596;2022-12-15T00:56:09;-3.00;99.90
17565;DHT22;62994;52.126;5.596;2022-12-15T00:58:57;-2.90;99.90
17565;DHT22;62994;52.126;5.596;2022-12-15T01:01:52;-3.00;99.90
17565;DHT22;62994;52.126;5.596;2022-12-15T01:04:39;-3.00;99.90
17565;DHT22;62994;52.126;5.596;2022-12-15T01:07:26;-3.00;99.90
17565;DHT22;62994;52.126;5.596;2022-12-15T01:10:12;-3.00;99.90
17565;DHT22;62994;52.126;5.596;2022-12-15T01:13:02;-3.00;99.90
17565;DHT22;62994;52.126;5.596;2022-12-15T01:15:47;-3.00;99.90
17565;DHT22;62994;52.126;5.596;2022-12-15T01:18:32;-2.90;99.90
17565;DHT22;62994;52.126;5.596;2022-12-15T01:21:19;-2.90;99.90
17565;DHT22;62994;52.126;5.596;2022-12-15T01:23:51;-2.90;99.90
17565;DHT22;62994;52.126;5.596;2022-12-15T01:26:21;-2.90;99.90
17565;DHT22;62994;52.126;5.596;2022-12-15T01:28:48;-2.90;99.90
17565;DHT22;62994;52.126;5.596;2022-12-15T01:31:17;-2.90;99.90
17565;DHT22;62994;52.126;5.596;2022-12-15T01:33:45;-2.90;99.90
17565;DHT22;62994;52.126;5.596;2022-12-15T01:36:16;-2.90;99.90
17565;DHT22;62994;52.126;5.596;2022-12-15T01:38:43;-3.00;99.90
17565;DHT22;62994;52.126;5.596;2022-12-15T01:41:15;-3.00;99.90
17565;DHT22;62994;52.126;5.596;2022-12-15T01:43:41;-3.00;99.90
17565;DHT22;62994;52.126;5.596;2022-12-15T01:46:11;-3.00;99.90
17565;DHT22;62994;52.126;5.596;2022-12-15T01:48:47;-3.00;99.90
17565;DHT22;62994;52.126;5.596;2022-12-15T01:51:31;-3.00;99.90
17565;DHT22;62994;52.126;5.596;2022-12-15T01:54:02;-3.00;99.90
17565;DHT22;62994;52.126;5.596;2022-12-15T01:56:39;-3.00;99.90
17565;DHT22;62994;52.126;5.596;2022-12-15T01:59:22;-3.00;99.90
17565;DHT22;62994;52.126;5.596;2022-12-15T02:01:54;-3.00;99.90
17565;DHT22;62994;52.126;5.596;2022-12-15T02:04:29;-3.00;99.90
17565;DHT22;62994;52.126;5.596;2022-12-15T02:06:57;-3.00;99.90
17565;DHT22;62994;52.126;5.596;2022-12-15T02:09:31;-3.00;99.90
17565;DHT22;62994;52.126;5.596;2022-12-15T02:12:15;-3.10;99.90
17565;DHT22;62994;52.126;5.596;2022-12-15T02:15:02;-3.00;99.90
17565;DHT22;62994;52.126;5.596;2022-12-15T02:17:40;-3.10;99.90
17565;DHT22;62994;52.126;5.596;2022-12-15T02:20:36;-3.10;99.90
17565;DHT22;62994;52.126;5.596;2022-12-15T02:26:31;-3.10;99.90
17565;DHT22;62994;52.126;5.596;2022-12-15T02:29:13;-3.10;99.90
17565;DHT22;62994;52.126;5.596;2022-12-15T02:32:01;-3.10;99.90
17565;DHT22;62994;52.126;5.596;2022-12-15T02:34:46;-3.10;99.90
17565;DHT22;62994;52.126;5.596;2022-12-15T02:37:28;-3.10;99.90
17565;DHT22;62994;52.126;5.596;2022-12-15T02:40:00;-3.10;99.90
17565;DHT22;62994;52.126;5.596;2022-12-15T02:42:28;-3.10;99.90
17565;DHT22;62994;52.126;5.596;2022-12-15T02:45:05;-3.20;99.90
17565;DHT22;62994;52.126;5.596;2022-12-15T02:47:49;-3.20;99.90
17565;DHT22;62994;52.126;5.596;2022-12-15T02:50:47;-3.10;99.90
17565;DHT22;62994;52.126;5.596;2022-12-15T02:53:40;-3.20;99.90
17565;DHT22;62994;52.126;5.596;2022-12-15T02:56:22;-3.20;99.90
17565;DHT22;62994;52.126;5.596;2022-12-15T02:59:02;-3.20;99.90
17565;DHT22;62994;52.126;5.596;2022-12-15T03:01:37;-3.20;99.90
17565;DHT22;62994;52.126;5.596;2022-12-15T03:04:10;-3.10;99.90
17565;DHT22;62994;52.126;5.596;2022-12-15T03:06:38;-3.20;99.90
17565;DHT22;62994;52.126;5.596;2022-12-15T03:09:05;-3.10;99.90
17565;DHT22;62994;52.126;5.596;2022-12-15T03:11:34;-3.20;99.90
17565;DHT22;62994;52.126;5.596;2022-12-15T03:14:07;-3.20;99.90
17565;DHT22;62994;52.126;5.596;2022-12-15T03:16:40;-3.20;99.90
17565;DHT22;62994;52.126;5.596;2022-12-15T03:19:11;-3.10;99.90
17565;DHT22;62994;52.126;5.596;2022-12-15T03:21:46;-3.10;99.90
17565;DHT22;62994;52.126;5.596;2022-12-15T03:24:14;-3.10;99.90
17565;DHT22;62994;52.126;5.596;2022-12-15T03:26:45;-3.10;99.90
17565;DHT22;62994;52.126;5.596;2022-12-15T03:29:18;-3.20;99.90
17565;DHT22;62994;52.126;5.596;2022-12-15T03:31:45;-3.10;99.90
17565;DHT22;62994;52.126;5.596;2022-12-15T03:34:14;-3.20;99.90
17565;DHT22;62994;52.126;5.596;2022-12-15T03:36:42;-3.20;99.90
17565;DHT22;62994;52.126;5.596;2022-12-15T03:39:11;-3.20;99.90
17565;DHT22;62994;52.126;5.596;2022-12-15T03:41:41;-3.20;99.90
17565;DHT22;62994;52.126;5.596;2022-12-15T03:44:08;-3.20;99.90
17565;DHT22;62994;52.126;5.596;2022-12-15T03:46:35;-3.20;99.90
17565;DHT22;62994;52.126;5.596;2022-12-15T03:49:07;-3.20;99.90
17565;DHT22;62994;52.126;5.596;2022-12-15T03:51:42;-3.20;99.90
17565;DHT22;62994;52.126;5.596;2022-12-15T03:54:16;-3.20;99.90
17565;DHT22;62994;52.126;5.596;2022-12-15T03:56:47;-3.20;99.90
17565;DHT22;62994;52.126;5.596;2022-12-15T03:59:14;-3.20;99.90
17565;DHT22;62994;52.126;5.596;2022-12-15T04:01:46;-3.20;99.90
17565;DHT22;62994;52.126;5.596;2022-12-15T04:04:13;-3.20;99.90
17565;DHT22;62994;52.126;5.596;2022-12-15T04:06:51;-3.20;99.90
17565;DHT22;62994;52.126;5.596;2022-12-15T04:09:23;-3.20;99.90
17565;DHT22;62994;52.126;5.596;2022-12-15T04:11:50;-3.20;99.90
17565;DHT22;62994;52.126;5.596;2022-12-15T04:14:17;-3.20;99.90
17565;DHT22;62994;52.126;5.596;2022-12-15T04:16:45;-3.20;99.90
17565;DHT22;62994;52.126;5.596;2022-12-15T04:19:16;-3.20;99.90
17565;DHT22;62994;52.126;5.596;2022-12-15T04:22:02;-3.30;99.90
17565;DHT22;62994;52.126;5.596;2022-12-15T04:24:29;-3.20;99.90
17565;DHT22;62994;52.126;5.596;2022-12-15T04:27:16;-3.20;99.90
17565;DHT22;62994;52.126;5.596;2022-12-15T04:30:11;-3.20;99.90
17565;DHT22;62994;52.126;5.596;2022-12-15T04:32:58;-3.20;99.90
17565;DHT22;62994;52.126;5.596;2022-12-15T04:35:47;-3.20;99.90
17565;DHT22;62994;52.126;5.596;2022-12-15T04:38:34;-3.20;99.90
17565;DHT22;62994;52.126;5.596;2022-12-15T04:41:23;-3.30;99.90
17565;DHT22;62994;52.126;5.596;2022-12-15T04:44:16;-3.20;99.90
17565;DHT22;62994;52.126;5.596;2022-12-15T04:47:06;-3.30;99.90
17565;DHT22;62994;52.126;5.596;2022-12-15T04:49:50;-3.30;99.90
17565;DHT22;62994;52.126;5.596;2022-12-15T04:52:41;-3.20;99.90
17565;DHT22;62994;52.126;5.596;2022-12-15T04:55:27;-3.20;99.90
17565;DHT22;62994;52.126;5.596;2022-12-15T04:58:13;-3.30;99.90
17565;DHT22;62994;52.126;5.596;2022-12-15T05:00:57;-3.30;99.90
17565;DHT22;62994;52.126;5.596;2022-12-15T05:03:43;-3.30;99.90
17565;DHT22;62994;52.126;5.596;2022-12-15T05:06:27;-3.30;99.90
17565;DHT22;62994;52.126;5.596;2022-12-15T05:09:12;-3.30;99.90
17565;DHT22;62994;52.126;5.596;2022-12-15T05:12:03;-3.30;99.90
17565;DHT22;62994;52.126;5.596;2022-12-15T05:14:47;-3.30;99.90
17565;DHT22;62994;52.126;5.596;2022-12-15T05:17:32;-3.30;99.90
17565;DHT22;62994;52.126;5.596;2022-12-15T05:20:20;-3.30;99.90
17565;DHT22;62994;52.126;5.596;2022-12-15T05:23:10;-3.30;99.90
17565;DHT22;62994;52.126;5.596;2022-12-15T05:25:57;-3.30;99.90
17565;DHT22;62994;52.126;5.596;2022-12-15T05:28:46;-3.30;99.90
17565;DHT22;62994;52.126;5.596;2022-12-15T05:31:47;-3.30;99.90
17565;DHT22;62994;52.126;5.596;2022-12-15T05:34:19;-3.30;99.90
17565;DHT22;62994;52.126;5.596;2022-12-15T05:36:52;-3.30;99.90
17565;DHT22;62994;52.126;5.596;2022-12-15T05:39:20;-3.40;99.90
17565;DHT22;62994;52.126;5.596;2022-12-15T05:41:56;-3.40;99.90
17565;DHT22;62994;52.126;5.596;2022-12-15T05:44:25;-3.30;99.90
17565;DHT22;62994;52.126;5.596;2022-12-15T05:46:52;-3.30;99.90
17565;DHT22;62994;52.126;5.596;2022-12-15T05:49:21;-3.30;99.90
17565;DHT22;62994;52.126;5.596;2022-12-15T05:51:49;-3.30;99.90
17565;DHT22;62994;52.126;5.596;2022-12-15T05:54:18;-3.30;99.90
17565;DHT22;62994;52.126;5.596;2022-12-15T05:56:47;-3.30;99.90
17565;DHT22;62994;52.126;5.596;2022-12-15T05:59:14;-3.30;99.90
17565;DHT22;62994;52.126;5.596;2022-12-15T06:01:46;-3.40;99.90
17565;DHT22;62994;52.126;5.596;2022-12-15T06:04:13;-3.30;99.90
17565;DHT22;62994;52.126;5.596;2022-12-15T06:06:41;-3.30;99.90
17565;DHT22;62994;52.126;5.596;2022-12-15T06:09:14;-3.30;99.90
17565;DHT22;62994;52.126;5.596;2022-12-15T06:11:43;-3.30;99.90
17565;DHT22;62994;52.126;5.596;2022-12-15T06:14:11;-3.30;99.90
17565;DHT22;62994;52.126;5.596;2022-12-15T06:16:46;-3.40;99.90
17565;DHT22;62994;52.126;5.596;2022-12-15T06:19:18;-3.40;99.90
17565;DHT22;62994;52.126;5.596;2022-12-15T06:21:45;-3.30;99.90
17565;DHT22;62994;52.126;5.596;2022-12-15T06:24:15;-3.30;99.90
17565;DHT22;62994;52.126;5.596;2022-12-15T06:26:42;-3.40;99.90
17565;DHT22;62994;52.126;5.596;2022-12-15T06:29:14;-3.40;99.90
17565;DHT22;62994;52.126;5.596;2022-12-15T06:31:41;-3.30;99.90
17565;DHT22;62994;52.126;5.596;2022-12-15T06:34:11;-3.30;99.90
17565;DHT22;62994;52.126;5.596;2022-12-15T06:36:41;-3.40;99.90
17565;DHT22;62994;52.126;5.596;2022-12-15T06:39:14;-3.40;99.90
17565;DHT22;62994;52.126;5.596;2022-12-15T06:41:53;-3.30;99.90
17565;DHT22;62994;52.126;5.596;2022-12-15T06:44:20;-3.40;99.90
17565;DHT22;62994;52.126;5.596;2022-12-15T06:46:49;-3.40;99.90
17565;DHT22;62994;52.126;5.596;2022-12-15T06:49:18;-3.40;99.90
17565;DHT22;62994;52.126;5.596;2022-12-15T06:51:46;-3.40;99.90
17565;DHT22;62994;52.126;5.596;2022-12-15T06:54:14;-3.40;99.90
17565;DHT22;62994;52.126;5.596;2022-12-15T06:56:43;-3.40;99.90
17565;DHT22;62994;52.126;5.596;2022-12-15T06:59:15;-3.40;99.90
17565;DHT22;62994;52.126;5.596;2022-12-15T07:01:42;-3.40;99.90
17565;DHT22;62994;52.126;5.596;2022-12-15T07:04:13;-3.40;99.90
17565;DHT22;62994;52.126;5.596;2022-12-15T07:06:42;-3.40;99.90
17565;DHT22;62994;52.126;5.596;2022-12-15T07:09:16;-3.40;99.90
17565;DHT22;62994;52.126;5.596;2022-12-15T07:11:43;-3.40;99.90
17565;DHT22;62994;52.126;5.596;2022-12-15T07:14:13;-3.40;99.90
17565;DHT22;62994;52.126;5.596;2022-12-15T07:16:48;-3.40;99.90
17565;DHT22;62994;52.126;5.596;2022-12-15T07:19:32;-3.40;99.90
17565;DHT22;62994;52.126;5.596;2022-12-15T07:22:07;-3.40;99.90
17565;DHT22;62994;52.126;5.596;2022-12-15T07:24:38;-3.40;99.90
17565;DHT22;62994;52.126;5.596;2022-12-15T07:27:14;-3.40;99.90
17565;DHT22;62994;52.126;5.596;2022-12-15T07:29:45;-3.40;99.90
17565;DHT22;62994;52.126;5.596;2022-12-15T07:32:32;-3.50;99.90
17565;DHT22;62994;52.126;5.596;2022-12-15T07:35:14;-3.50;99.90
17565;DHT22;62994;52.126;5.596;2022-12-15T07:37:46;-3.40;99.90
17565;DHT22;62994;52.126;5.596;2022-12-15T07:40:20;-3.40;99.90
17565;DHT22;62994;52.126;5.596;2022-12-15T07:43:05;-3.40;99.90
17565;DHT22;62994;52.126;5.596;2022-12-15T07:45:41;-3.40;99.90
17565;DHT22;62994;52.126;5.596;2022-12-15T07:48:10;-3.40;99.90
17565;DHT22;62994;52.126;5.596;2022-12-15T07:50:42;-3.40;99.90
17565;DHT22;62994;52.126;5.596;2022-12-15T07:53:10;-3.50;99.90
17565;DHT22;62994;52.126;5.596;2022-12-15T07:55:43;-3.50;99.90
17565;DHT22;62994;52.126;5.596;2022-12-15T07:58:15;-3.40;99.90
17565;DHT22;62994;52.126;5.596;2022-12-15T08:00:57;-3.40;99.90
17565;DHT22;62994;52.126;5.596;2022-12-15T08:03:29;-3.50;99.90
17565;DHT22;62994;52.126;5.596;2022-12-15T08:06:03;-3.40;99.90
17565;DHT22;62994;52.126;5.596;2022-12-15T08:08:42;-3.50;99.90
17565;DHT22;62994;52.126;5.596;2022-12-15T08:11:12;-3.40;99.90
17565;DHT22;62994;52.126;5.596;2022-12-15T08:13:40;-3.40;99.90
17565;DHT22;62994;52.126;5.596;2022-12-15T08:16:07;-3.40;99.90
17565;DHT22;62994;52.126;5.596;2022-12-15T08:18:50;-3.40;99.90
17565;DHT22;62994;52.126;5.596;2022-12-15T08:21:25;-3.40;99.90
17565;DHT22;62994;52.126;5.596;2022-12-15T08:23:53;-3.40;99.90
17565;DHT22;62994;52.126;5.596;2022-12-15T08:26:21;-3.30;99.90
17565;DHT22;62994;52.126;5.596;2022-12-15T08:28:53;-3.30;99.90
17565;DHT22;62994;52.126;5.596;2022-12-15T08:31:22;-3.30;99.90
17565;DHT22;62994;52.126;5.596;2022-12-15T08:33:52;-3.30;99.90
17565;DHT22;62994;52.126;5.596;2022-12-15T08:36:23;-3.20;99.90
17565;DHT22;62994;52.126;5.596;2022-12-15T08:39:10;-3.30;99.90
17565;DHT22;62994;52.126;5.596;2022-12-15T08:41:47;-3.20;99.90
17565;DHT22;62994;52.126;5.596;2022-12-15T08:44:14;-3.20;99.90
17565;DHT22;62994;52.126;5.596;2022-12-15T08:46:43;-3.20;99.90
17565;DHT22;62994;52.126;5.596;2022-12-15T08:49:14;-3.20;99.90
17565;DHT22;62994;52.126;5.596;2022-12-15T08:51:46;-3.20;99.90
17565;DHT22;62994;52.126;5.596;2022-12-15T08:54:20;-3.20;99.90
17565;DHT22;62994;52.126;5.596;2022-12-15T08:57:06;-3.10;99.90
17565;DHT22;62994;52.126;5.596;2022-12-15T08:59:35;-3.10;99.90
17565;DHT22;62994;52.126;5.596;2022-12-15T09:02:08;-3.10;99.90
17565;DHT22;62994;52.126;5.596;2022-12-15T09:04:36;-3.00;99.90
17565;DHT22;62994;52.126;5.596;2022-12-15T09:07:03;-3.00;99.90
17565;DHT22;62994;52.126;5.596;2022-12-15T09:09:31;-3.00;99.90
17565;DHT22;62994;52.126;5.596;2022-12-15T09:12:14;-2.90;99.90
17565;DHT22;62994;52.126;5.596;2022-12-15T09:14:41;-2.90;99.90
17565;DHT22;62994;52.126;5.596;2022-12-15T09:17:15;-2.80;99.90
17565;DHT22;62994;52.126;5.596;2022-12-15T09:19:47;-2.80;99.90
17565;DHT22;62994;52.126;5.596;2022-12-15T09:22:17;-2.80;99.90
17565;DHT22;62994;52.126;5.596;2022-12-15T09:24:51;-2.80;99.90
17565;DHT22;62994;52.126;5.596;2022-12-15T09:27:19;-2.80;99.90
17565;DHT22;62994;52.126;5.596;2022-12-15T09:29:49;-2.80;99.90
17565;DHT22;62994;52.126;5.596;2022-12-15T09:32:16;-2.70;99.90
17565;DHT22;62994;52.126;5.596;2022-12-15T09:34:46;-2.70;99.90
17565;DHT22;62994;52.126;5.596;2022-12-15T09:37:17;-2.60;99.90
17565;DHT22;62994;52.126;5.596;2022-12-15T09:39:44;-2.50;99.90
17565;DHT22;62994;52.126;5.596;2022-12-15T09:42:24;-2.50;99.90
17565;DHT22;62994;52.126;5.596;2022-12-15T09:45:00;-2.40;99.90
17565;DHT22;62994;52.126;5.596;2022-12-15T09:47:37;-2.40;99.90
17565;DHT22;62994;52.126;5.596;2022-12-15T09:50:13;-2.30;99.90
17565;DHT22;62994;52.126;5.596;2022-12-15T09:52:46;-2.30;99.90
17565;DHT22;62994;52.126;5.596;2022-12-15T09:55:22;-2.30;99.90
17565;DHT22;62994;52.126;5.596;2022-12-15T09:57:53;-2.20;99.90
17565;DHT22;62994;52.126;5.596;2022-12-15T10:00:42;-2.10;99.90
17565;DHT22;62994;52.126;5.596;2022-12-15T10:03:39;-2.10;99.90
17565;DHT22;62994;52.126;5.596;2022-12-15T10:06:13;-2.00;99.90
17565;DHT22;62994;52.126;5.596;2022-12-15T10:08:42;-2.00;99.90
17565;DHT22;62994;52.126;5.596;2022-12-15T10:11:16;-2.00;99.90
17565;DHT22;62994;52.126;5.596;2022-12-15T10:13:50;-1.90;99.90
17565;DHT22;62994;52.126;5.596;2022-12-15T10:16:22;-1.80;99.90
17565;DHT22;62994;52.126;5.596;2022-12-15T10:19:18;-1.80;99.90
17565;DHT22;62994;52.126;5.596;2022-12-15T10:21:47;-1.70;99.90
17565;DHT22;62994;52.126;5.596;2022-12-15T10:27:27;-1.60;99.90
17565;DHT22;62994;52.126;5.596;2022-12-15T10:30:02;-1.50;99.90
17565;DHT22;62994;52.126;5.596;2022-12-15T10:32:48;-1.50;99.90
17565;DHT22;62994;52.126;5.596;2022-12-15T10:35:20;-1.40;99.90
17565;DHT22;62994;52.126;5.596;2022-12-15T10:37:48;-1.30;99.90
17565;DHT22;62994;52.126;5.596;2022-12-15T10:40:18;-1.30;99.90
17565;DHT22;62994;52.126;5.596;2022-12-15T10:42:49;-1.20;99.90
17565;DHT22;62994;52.126;5.596;2022-12-15T10:45:39;-1.20;99.90
17565;DHT22;62994;52.126;5.596;2022-12-15T10:48:18;-1.10;99.90
17565;DHT22;62994;52.126;5.596;2022-12-15T10:51:14;-1.10;99.90
17565;DHT22;62994;52.126;5.596;2022-12-15T10:53:47;-1.00;99.90
17565;DHT22;62994;52.126;5.596;2022-12-15T10:56:20;-0.80;99.90
17565;DHT22;62994;52.126;5.596;2022-12-15T10:58:49;-0.70;99.90
17565;DHT22;62994;52.126;5.596;2022-12-15T11:01:26;-0.60;99.90
17565;DHT22;62994;52.126;5.596;2022-12-15T11:03:58;-0.60;99.90
17565;DHT22;62994;52.126;5.596;2022-12-15T11:06:31;-0.60;99.90
17565;DHT22;62994;52.126;5.596;2022-12-15T11:09:08;-0.50;99.90
17565;DHT22;62994;52.126;5.596;2022-12-15T11:11:46;-0.50;99.90
17565;DHT22;62994;52.126;5.596;2022-12-15T11:14:50;-0.50;99.90
17565;DHT22;62994;52.126;5.596;2022-12-15T11:17:20;-0.40;99.90
17565;DHT22;62994;52.126;5.596;2022-12-15T11:19:51;-0.40;99.90
17565;DHT22;62994;52.126;5.596;2022-12-15T11:22:30;-0.30;99.90
17565;DHT22;62994;52.126;5.596;2022-12-15T11:25:04;-0.30;99.90
17565;DHT22;62994;52.126;5.596;2022-12-15T11:27:36;-0.20;99.90
17565;DHT22;62994;52.126;5.596;2022-12-15T11:30:13;-0.20;99.90
17565;DHT22;62994;52.126;5.596;2022-12-15T11:32:57;-0.10;99.90
17565;DHT22;62994;52.126;5.596;2022-12-15T11:35:29;-0.10;99.90
17565;DHT22;62994;52.126;5.596;2022-12-15T11:38:04;0.00;99.90
17565;DHT22;62994;52.126;5.596;2022-12-15T11:40:41;0.00;99.90
17565;DHT22;62994;52.126;5.596;2022-12-15T11:43:33;0.10;99.90
17565;DHT22;62994;52.126;5.596;2022-12-15T11:46:18;0.10;99.90
17565;DHT22;62994;52.126;5.596;2022-12-15T11:49:03;0.20;99.90
17565;DHT22;62994;52.126;5.596;2022-12-15T11:51:40;0.30;99.90
17565;DHT22;62994;52.126;5.596;2022-12-15T11:54:19;0.30;99.90
17565;DHT22;62994;52.126;5.596;2022-12-15T11:56:54;0.40;99.90
17565;DHT22;62994;52.126;5.596;2022-12-15T11:59:55;0.50;99.90
17565;DHT22;62994;52.126;5.596;2022-12-15T12:02:51;0.50;99.90
17565;DHT22;62994;52.126;5.596;2022-12-15T12:05:35;0.60;99.90
17565;DHT22;62994;52.126;5.596;2022-12-15T12:08:15;0.60;99.90
17565;DHT22;62994;52.126;5.596;2022-12-15T12:10:51;0.70;99.90
17565;DHT22;62994;52.126;5.596;2022-12-15T12:13:25;0.70;99.90
17565;DHT22;62994;52.126;5.596;2022-12-15T12:16:05;0.80;99.90
17565;DHT22;62994;52.126;5.596;2022-12-15T12:18:41;0.90;99.90
17565;DHT22;62994;52.126;5.596;2022-12-15T12:21:14;0.90;99.90
17565;DHT22;62994;52.126;5.596;2022-12-15T12:23:50;0.90;99.90
17565;DHT22;62994;52.126;5.596;2022-12-15T12:26:24;1.00;99.90
17565;DHT22;62994;52.126;5.596;2022-12-15T12:28:58;1.00;99.90
17565;DHT22;62994;52.126;5.596;2022-12-15T12:31:39;1.10;99.90
17565;DHT22;62994;52.126;5.596;2022-12-15T12:34:12;1.20;99.90
17565;DHT22;62994;52.126;5.596;2022-12-15T12:36:52;1.20;99.90
17565;DHT22;62994;52.126;5.596;2022-12-15T12:39:32;1.20;99.90
17565;DHT22;62994;52.126;5.596;2022-12-15T12:42:08;1.30;99.90
17565;DHT22;62994;52.126;5.596;2022-12-15T12:44:38;1.30;99.90
17565;DHT22;62994;52.126;5.596;2022-12-15T12:47:11;1.40;99.90
17565;DHT22;62994;52.126;5.596;2022-12-15T12:49:46;1.40;99.90
17565;DHT22;62994;52.126;5.596;2022-12-15T12:52:34;1.40;99.90
17565;DHT22;62994;52.126;5.596;2022-12-15T12:55:27;1.40;99.90
17565;DHT22;62994;52.126;5.596;2022-12-15T12:58:03;1.50;99.90
17565;DHT22;62994;52.126;5.596;2022-12-15T13:04:14;1.60;99.90
17565;DHT22;62994;52.126;5.596;2022-12-15T13:07:26;1.60;99.90
17565;DHT22;62994;52.126;5.596;2022-12-15T13:10:17;1.60;99.90
17565;DHT22;62994;52.126;5.596;2022-12-15T13:12:56;1.60;99.90
17565;DHT22;62994;52.126;5.596;2022-12-15T13:15:38;1.70;99.90
17565;DHT22;62994;52.126;5.596;2022-12-15T13:18:15;1.70;99.90
17565;DHT22;62994;52.126;5.596;2022-12-15T13:20:55;1.70;99.90
17565;DHT22;62994;52.126;5.596;2022-12-15T13:23:46;1.80;99.90
17565;DHT22;62994;52.126;5.596;2022-12-15T13:26:17;1.80;99.90
17565;DHT22;62994;52.126;5.596;2022-12-15T13:28:51;1.80;99.90
17565;DHT22;62994;52.126;5.596;2022-12-15T13:31:45;1.90;99.90
17565;DHT22;62994;52.126;5.596;2022-12-15T13:34:22;1.90;99.90
17565;DHT22;62994;52.126;5.596;2022-12-15T13:36:55;1.90;99.90
17565;DHT22;62994;52.126;5.596;2022-12-15T13:42:30;2.00;99.90
17565;DHT22;62994;52.126;5.596;2022-12-15T13:45:30;2.00;99.90
17565;DHT22;62994;52.126;5.596;2022-12-15T13:48:04;2.10;99.90
17565;DHT22;62994;52.126;5.596;2022-12-15T13:50:45;2.10;99.90
17565;DHT22;62994;52.126;5.596;2022-12-15T13:53:17;2.10;99.90
17565;DHT22;62994;52.126;5.596;2022-12-15T13:56:02;2.10;99.90
17565;DHT22;62994;52.126;5.596;2022-12-15T13:58:38;2.10;99.90
17565;DHT22;62994;52.126;5.596;2022-12-15T14:01:31;2.10;99.90
17565;DHT22;62994;52.126;5.596;2022-12-15T14:04:15;2.10;99.90
17565;DHT22;62994;52.126;5.596;2022-12-15T14:06:47;2.10;99.90
17565;DHT22;62994;52.126;5.596;2022-12-15T14:09:19;2.10;99.90
17565;DHT22;62994;52.126;5.596;2022-12-15T14:11:47;2.10;99.90
17565;DHT22;62994;52.126;5.596;2022-12-15T14:14:22;2.10;99.90
17565;DHT22;62994;52.126;5.596;2022-12-15T14:17:01;2.10;99.90
17565;DHT22;62994;52.126;5.596;2022-12-15T14:19:42;2.10;99.90
17565;DHT22;62994;52.126;5.596;2022-12-15T14:22:21;2.10;99.90
17565;DHT22;62994;52.126;5.596;2022-12-15T14:25:00;2.10;99.90
17565;DHT22;62994;52.126;5.596;2022-12-15T14:27:31;2.10;99.90
17565;DHT22;62994;52.126;5.596;2022-12-15T14:30:18;2.10;99.90
17565;DHT22;62994;52.126;5.596;2022-12-15T14:32:49;2.10;99.90
17565;DHT22;62994;52.126;5.596;2022-12-15T14:35:24;2.10;99.90
17565;DHT22;62994;52.126;5.596;2022-12-15T14:38:00;2.10;99.90
17565;DHT22;62994;52.126;5.596;2022-12-15T14:40:31;2.10;99.90
17565;DHT22;62994;52.126;5.596;2022-12-15T14:43:08;2.10;99.90
17565;DHT22;62994;52.126;5.596;2022-12-15T14:45:42;2.10;99.90
17565;DHT22;62994;52.126;5.596;2022-12-15T14:48:09;2.00;99.90
17565;DHT22;62994;52.126;5.596;2022-12-15T14:50:43;2.00;99.90
17565;DHT22;62994;52.126;5.596;2022-12-15T14:53:14;2.00;99.90
17565;DHT22;62994;52.126;5.596;2022-12-15T14:55:43;2.00;99.90
17565;DHT22;62994;52.126;5.596;2022-12-15T14:58:31;2.00;99.90
17565;DHT22;62994;52.126;5.596;2022-12-15T15:01:22;2.00;99.90
17565;DHT22;62994;52.126;5.596;2022-12-15T15:03:58;2.00;99.90
17565;DHT22;62994;52.126;5.596;2022-12-15T15:06:34;2.00;99.90
17565;DHT22;62994;52.126;5.596;2022-12-15T15:09:26;2.00;99.90
17565;DHT22;62994;52.126;5.596;2022-12-15T15:11:55;2.00;99.90
17565;DHT22;62994;52.126;5.596;2022-12-15T15:14:25;1.90;99.90
17565;DHT22;62994;52.126;5.596;2022-12-15T15:17:06;1.90;99.90
17565;DHT22;62994;52.126;5.596;2022-12-15T15:19:47;1.90;99.90
17565;DHT22;62994;52.126;5.596;2022-12-15T15:22:30;1.90;99.90
17565;DHT22;62994;52.126;5.596;2022-12-15T15:27:44;1.90;99.90
17565;DHT22;62994;52.126;5.596;2022-12-15T15:30:19;1.90;99.90
17565;DHT22;62994;52.126;5.596;2022-12-15T15:32:57;1.90;99.90
17565;DHT22;62994;52.126;5.596;2022-12-15T15:35:30;1.80;99.90
17565;DHT22;62994;52.126;5.596;2022-12-15T15:38:01;1.80;99.90
17565;DHT22;62994;52.126;5.596;2022-12-15T15:40:36;1.80;99.90
17565;DHT22;62994;52.126;5.596;2022-12-15T15:43:09;1.80;99.90
17565;DHT22;62994;52.126;5.596;2022-12-15T15:45:41;1.70;99.90
17565;DHT22;62994;52.126;5.596;2022-12-15T15:48:15;1.70;99.90
17565;DHT22;62994;52.126;5.596;2022-12-15T15:50:44;1.70;99.90
17565;DHT22;62994;52.126;5.596;2022-12-15T15:53:15;1.60;99.90
17565;DHT22;62994;52.126;5.596;2022-12-15T15:55:44;1.60;99.90
17565;DHT22;62994;52.126;5.596;2022-12-15T15:58:16;1.60;99.90
17565;DHT22;62994;52.126;5.596;2022-12-15T16:00:46;1.50;99.90
17565;DHT22;62994;52.126;5.596;2022-12-15T16:03:16;1.50;99.90
17565;DHT22;62994;52.126;5.596;2022-12-15T16:05:50;1.40;99.90
17565;DHT22;62994;52.126;5.596;2022-12-15T16:08:24;1.40;99.90
17565;DHT22;62994;52.126;5.596;2022-12-15T16:10:52;1.40;99.90
17565;DHT22;62994;52.126;5.596;2022-12-15T16:13:20;1.40;99.90
17565;DHT22;62994;52.126;5.596;2022-12-15T16:15:47;1.40;99.90
17565;DHT22;62994;52.126;5.596;2022-12-15T16:18:22;1.30;99.90
17565;DHT22;62994;52.126;5.596;2022-12-15T16:20:56;1.40;99.90
17565;DHT22;62994;52.126;5.596;2022-12-15T16:23:29;1.40;99.90
17565;DHT22;62994;52.126;5.596;2022-12-15T16:26:02;1.40;99.90
17565;DHT22;62994;52.126;5.596;2022-12-15T16:28:34;1.30;99.90
17565;DHT22;62994;52.126;5.596;2022-12-15T16:31:01;1.30;99.90
17565;DHT22;62994;52.126;5.596;2022-12-15T16:33:44;1.30;99.90
17565;DHT22;62994;52.126;5.596;2022-12-15T16:36:13;1.30;99.90
17565;DHT22;62994;52.126;5.596;2022-12-15T16:38:50;1.30;99.90
17565;DHT22;62994;52.126;5.596;2022-12-15T16:41:19;1.30;99.90
17565;DHT22;62994;52.126;5.596;2022-12-15T16:43:57;1.20;99.90
17565;DHT22;62994;52.126;5.596;2022-12-15T16:46:29;1.20;99.90
17565;DHT22;62994;52.126;5.596;2022-12-15T16:48:57;1.10;99.90